sensor_id;sensor_type;location;lat;lon;timestamp;P1;durP1;ratioP1;P2;durP2;ratioP2
51838;SDS011;37886;53.174;6.368;2023-10-08T00:02:16;1.00;;;0.20;;
51838;SDS011;37886;53.174;6.368;2023-10-08T00:04:47;3.05;;;0.30;;
51838;SDS011;37886;53.174;6.368;2023-10-08T00:07:16;2.20;;;0.47;;
51838;SDS011;37886;53.174;6.368;2023-10-08T00:09:46;1.80;;;0.30;;
51838;SDS011;37886;53.174;6.368;2023-10-08T00:12:21;2.30;;;0.32;;
51838;SDS011;37886;53.174;6.368;2023-10-08T00:14:48;2.63;;;0.40;;
51838;SDS011;37886;53.174;6.368;2023-10-08T00:17:15;3.08;;;0.20;;
51838;SDS011;37886;53.174;6.368;2023-10-08T00:19:44;4.03;;;0.20;;
51838;SDS011;37886;53.174;6.368;2023-10-08T00:22:10;3.42;;;0.22;;
51838;SDS011;37886;53.174;6.368;2023-10-08T00:24:38;2.42;;;0.20;;
51838;SDS011;37886;53.174;6.368;2023-10-08T00:27:07;3.40;;;0.32;;
51838;SDS011;37886;53.174;6.368;2023-10-08T00:29:34;3.13;;;0.30;;
51838;SDS011;37886;53.174;6.368;2023-10-08T00:32:00;1.00;;;0.10;;
51838;SDS011;37886;53.174;6.368;2023-10-08T00:34:36;1.85;;;0.20;;
51838;SDS011;37886;53.174;6.368;2023-10-08T00:37:06;5.47;;;0.10;;
51838;SDS011;37886;53.174;6.368;2023-10-08T00:39:35;4.38;;;0.30;;
51838;SDS011;37886;53.174;6.368;2023-10-08T00:42:03;5.40;;;0.20;;
51838;SDS011;37886;53.174;6.368;2023-10-08T00:44:31;3.22;;;0.32;;
51838;SDS011;37886;53.174;6.368;2023-10-08T00:47:00;2.10;;;0.22;;
51838;SDS011;37886;53.174;6.368;2023-10-08T00:49:27;4.22;;;0.30;;
51838;SDS011;37886;53.174;6.368;2023-10-08T00:52:14;2.50;;;0.30;;
51838;SDS011;37886;53.174;6.368;2023-10-08T00:54:40;1.08;;;0.10;;
51838;SDS011;37886;53.174;6.368;2023-10-08T00:57:14;1.83;;;0.17;;
51838;SDS011;37886;53.174;6.368;2023-10-08T00:59:45;3.00;;;0.25;;
51838;SDS011;37886;53.174;6.368;2023-10-08T01:02:17;3.63;;;0.30;;
51838;SDS011;37886;53.174;6.368;2023-10-08T01:04:51;2.30;;;0.30;;
51838;SDS011;37886;53.174;6.368;2023-10-08T01:07:19;2.55;;;0.20;;
51838;SDS011;37886;53.174;6.368;2023-10-08T01:09:47;3.67;;;0.30;;
51838;SDS011;37886;53.174;6.368;2023-10-08T01:12:17;1.17;;;0.10;;
51838;SDS011;37886;53.174;6.368;2023-10-08T01:14:58;4.35;;;0.30;;
51838;SDS011;37886;53.174;6.368;2023-10-08T01:17:48;1.85;;;0.13;;
51838;SDS011;37886;53.174;6.368;2023-10-08T01:20:23;1.13;;;0.10;;
51838;SDS011;37886;53.174;6.368;2023-10-08T01:23:00;6.18;;;0.32;;
51838;SDS011;37886;53.174;6.368;2023-10-08T01:25:28;3.07;;;0.13;;
51838;SDS011;37886;53.174;6.368;2023-10-08T01:27:56;5.97;;;0.20;;
51838;SDS011;37886;53.174;6.368;2023-10-08T01:32:51;7.05;;;0.35;;
51838;SDS011;37886;53.174;6.368;2023-10-08T01:35:17;2.20;;;0.43;;
51838;SDS011;37886;53.174;6.368;2023-10-08T01:37:52;2.70;;;0.20;;
51838;SDS011;37886;53.174;6.368;2023-10-08T01:40:20;2.25;;;0.17;;
51838;SDS011;37886;53.174;6.368;2023-10-08T01:42:46;5.75;;;0.38;;
51838;SDS011;37886;53.174;6.368;2023-10-08T01:45:16;6.15;;;0.60;;
51838;SDS011;37886;53.174;6.368;2023-10-08T01:47:43;4.65;;;0.20;;
51838;SDS011;37886;53.174;6.368;2023-10-08T01:50:09;3.75;;;0.20;;
51838;SDS011;37886;53.174;6.368;2023-10-08T01:52:46;3.78;;;0.40;;
51838;SDS011;37886;53.174;6.368;2023-10-08T01:55:13;4.57;;;0.35;;
51838;SDS011;37886;53.174;6.368;2023-10-08T01:57:43;6.30;;;0.30;;
51838;SDS011;37886;53.174;6.368;2023-10-08T02:00:12;2.13;;;0.30;;
51838;SDS011;37886;53.174;6.368;2023-10-08T02:02:51;2.13;;;0.30;;
51838;SDS011;37886;53.174;6.368;2023-10-08T02:05:19;5.28;;;0.43;;
51838;SDS011;37886;53.174;6.368;2023-10-08T02:07:46;2.10;;;0.22;;
51838;SDS011;37886;53.174;6.368;2023-10-08T02:10:12;3.45;;;0.35;;
51838;SDS011;37886;53.174;6.368;2023-10-08T02:12:39;2.67;;;0.30;;
51838;SDS011;37886;53.174;6.368;2023-10-08T02:15:06;3.38;;;0.40;;
51838;SDS011;37886;53.174;6.368;2023-10-08T02:17:33;5.20;;;0.68;;
51838;SDS011;37886;53.174;6.368;2023-10-08T02:19:59;6.13;;;0.40;;
51838;SDS011;37886;53.174;6.368;2023-10-08T02:22:29;2.03;;;0.32;;
51838;SDS011;37886;53.174;6.368;2023-10-08T02:24:55;4.78;;;0.35;;
51838;SDS011;37886;53.174;6.368;2023-10-08T02:29:52;8.15;;;0.60;;
51838;SDS011;37886;53.174;6.368;2023-10-08T02:32:18;1.67;;;0.30;;
51838;SDS011;37886;53.174;6.368;2023-10-08T02:34:43;5.30;;;0.43;;
51838;SDS011;37886;53.174;6.368;2023-10-08T02:37:10;4.43;;;0.40;;
51838;SDS011;37886;53.174;6.368;2023-10-08T02:39:37;8.32;;;0.30;;
51838;SDS011;37886;53.174;6.368;2023-10-08T02:42:05;4.65;;;0.50;;
51838;SDS011;37886;53.174;6.368;2023-10-08T02:44:36;4.53;;;0.60;;
51838;SDS011;37886;53.174;6.368;2023-10-08T02:47:08;6.38;;;0.47;;
51838;SDS011;37886;53.174;6.368;2023-10-08T02:49:37;1.23;;;0.50;;
51838;SDS011;37886;53.174;6.368;2023-10-08T02:52:06;5.28;;;0.40;;
51838;SDS011;37886;53.174;6.368;2023-10-08T02:54:34;5.38;;;0.70;;
51838;SDS011;37886;53.174;6.368;2023-10-08T02:57:02;6.20;;;0.50;;
51838;SDS011;37886;53.174;6.368;2023-10-08T02:59:32;2.78;;;0.40;;
51838;SDS011;37886;53.174;6.368;2023-10-08T03:02:12;5.65;;;0.60;;
51838;SDS011;37886;53.174;6.368;2023-10-08T03:04:46;6.20;;;0.50;;
51838;SDS011;37886;53.174;6.368;2023-10-08T03:07:17;4.03;;;0.43;;
51838;SDS011;37886;53.174;6.368;2023-10-08T03:09:50;3.63;;;0.50;;
51838;SDS011;37886;53.174;6.368;2023-10-08T03:12:28;1.95;;;0.50;;
51838;SDS011;37886;53.174;6.368;2023-10-08T03:14:57;3.20;;;0.50;;
51838;SDS011;37886;53.174;6.368;2023-10-08T03:17:38;1.70;;;0.40;;
51838;SDS011;37886;53.174;6.368;2023-10-08T03:20:04;2.55;;;0.47;;
51838;SDS011;37886;53.174;6.368;2023-10-08T03:22:50;6.95;;;0.63;;
51838;SDS011;37886;53.174;6.368;2023-10-08T03:25:16;1.85;;;0.40;;
51838;SDS011;37886;53.174;6.368;2023-10-08T03:27:42;3.40;;;0.50;;
51838;SDS011;37886;53.174;6.368;2023-10-08T03:30:09;1.38;;;0.45;;
51838;SDS011;37886;53.174;6.368;2023-10-08T03:32:42;4.70;;;0.80;;
51838;SDS011;37886;53.174;6.368;2023-10-08T03:35:09;3.03;;;0.60;;
51838;SDS011;37886;53.174;6.368;2023-10-08T03:37:36;7.18;;;0.47;;
51838;SDS011;37886;53.174;6.368;2023-10-08T03:40:11;4.45;;;0.52;;
51838;SDS011;37886;53.174;6.368;2023-10-08T03:42:55;2.85;;;0.50;;
51838;SDS011;37886;53.174;6.368;2023-10-08T03:45:21;4.38;;;0.60;;
51838;SDS011;37886;53.174;6.368;2023-10-08T03:48:06;4.45;;;0.63;;
51838;SDS011;37886;53.174;6.368;2023-10-08T03:50:36;3.58;;;0.52;;
51838;SDS011;37886;53.174;6.368;2023-10-08T03:53:08;8.65;;;0.70;;
51838;SDS011;37886;53.174;6.368;2023-10-08T03:55:37;7.60;;;0.60;;
51838;SDS011;37886;53.174;6.368;2023-10-08T03:58:08;6.28;;;0.60;;
51838;SDS011;37886;53.174;6.368;2023-10-08T04:01:04;4.32;;;0.65;;
51838;SDS011;37886;53.174;6.368;2023-10-08T04:06:20;8.73;;;0.50;;
51838;SDS011;37886;53.174;6.368;2023-10-08T04:09:02;8.52;;;0.80;;
51838;SDS011;37886;53.174;6.368;2023-10-08T04:11:38;8.07;;;0.50;;
51838;SDS011;37886;53.174;6.368;2023-10-08T04:14:20;6.38;;;0.60;;
51838;SDS011;37886;53.174;6.368;2023-10-08T04:16:47;2.40;;;0.40;;
51838;SDS011;37886;53.174;6.368;2023-10-08T04:19:16;4.43;;;0.57;;
51838;SDS011;37886;53.174;6.368;2023-10-08T04:21:44;7.20;;;0.50;;
51838;SDS011;37886;53.174;6.368;2023-10-08T04:24:10;6.93;;;0.80;;
51838;SDS011;37886;53.174;6.368;2023-10-08T04:26:39;8.45;;;0.70;;
51838;SDS011;37886;53.174;6.368;2023-10-08T04:29:06;3.92;;;0.60;;
51838;SDS011;37886;53.174;6.368;2023-10-08T04:31:35;8.05;;;0.82;;
51838;SDS011;37886;53.174;6.368;2023-10-08T04:34:12;6.00;;;0.75;;
51838;SDS011;37886;53.174;6.368;2023-10-08T04:36:47;9.10;;;0.90;;
51838;SDS011;37886;53.174;6.368;2023-10-08T04:39:22;4.72;;;0.63;;
51838;SDS011;37886;53.174;6.368;2023-10-08T04:41:57;8.60;;;0.68;;
51838;SDS011;37886;53.174;6.368;2023-10-08T04:44:37;5.82;;;0.70;;
51838;SDS011;37886;53.174;6.368;2023-10-08T04:47:04;12.07;;;0.73;;
51838;SDS011;37886;53.174;6.368;2023-10-08T04:49:31;4.03;;;0.60;;
51838;SDS011;37886;53.174;6.368;2023-10-08T04:52:00;11.80;;;0.70;;
51838;SDS011;37886;53.174;6.368;2023-10-08T04:54:38;6.28;;;0.90;;
51838;SDS011;37886;53.174;6.368;2023-10-08T04:57:06;9.88;;;0.80;;
51838;SDS011;37886;53.174;6.368;2023-10-08T04:59:32;6.20;;;0.73;;
51838;SDS011;37886;53.174;6.368;2023-10-08T05:02:07;6.10;;;0.65;;
51838;SDS011;37886;53.174;6.368;2023-10-08T05:04:59;6.32;;;0.57;;
51838;SDS011;37886;53.174;6.368;2023-10-08T05:07:36;6.68;;;1.05;;
51838;SDS011;37886;53.174;6.368;2023-10-08T05:10:11;6.75;;;0.68;;
51838;SDS011;37886;53.174;6.368;2023-10-08T05:12:49;12.00;;;0.93;;
51838;SDS011;37886;53.174;6.368;2023-10-08T05:15:30;7.13;;;0.98;;
51838;SDS011;37886;53.174;6.368;2023-10-08T05:18:02;10.90;;;0.90;;
51838;SDS011;37886;53.174;6.368;2023-10-08T05:20:44;9.68;;;0.80;;
51838;SDS011;37886;53.174;6.368;2023-10-08T05:23:11;9.60;;;1.13;;
51838;SDS011;37886;53.174;6.368;2023-10-08T05:25:50;13.40;;;0.85;;
51838;SDS011;37886;53.174;6.368;2023-10-08T05:28:32;7.57;;;0.77;;
51838;SDS011;37886;53.174;6.368;2023-10-08T05:31:11;13.43;;;0.88;;
51838;SDS011;37886;53.174;6.368;2023-10-08T05:33:39;11.57;;;0.80;;
51838;SDS011;37886;53.174;6.368;2023-10-08T05:36:23;4.50;;;0.75;;
51838;SDS011;37886;53.174;6.368;2023-10-08T05:39:21;14.25;;;1.02;;
51838;SDS011;37886;53.174;6.368;2023-10-08T05:41:50;8.10;;;0.70;;
51838;SDS011;37886;53.174;6.368;2023-10-08T05:44:16;13.10;;;1.00;;
51838;SDS011;37886;53.174;6.368;2023-10-08T05:46:42;10.80;;;0.80;;
51838;SDS011;37886;53.174;6.368;2023-10-08T05:49:21;8.77;;;0.70;;
51838;SDS011;37886;53.174;6.368;2023-10-08T05:51:56;3.42;;;0.70;;
51838;SDS011;37886;53.174;6.368;2023-10-08T05:54:22;11.13;;;0.82;;
51838;SDS011;37886;53.174;6.368;2023-10-08T05:59:40;8.73;;;0.80;;
51838;SDS011;37886;53.174;6.368;2023-10-08T06:02:19;10.65;;;0.88;;
51838;SDS011;37886;53.174;6.368;2023-10-08T06:04:58;11.75;;;0.82;;
51838;SDS011;37886;53.174;6.368;2023-10-08T06:07:44;10.88;;;0.80;;
51838;SDS011;37886;53.174;6.368;2023-10-08T06:13:03;10.65;;;1.08;;
51838;SDS011;37886;53.174;6.368;2023-10-08T06:18:30;10.18;;;1.23;;
51838;SDS011;37886;53.174;6.368;2023-10-08T06:21:01;7.43;;;0.80;;
51838;SDS011;37886;53.174;6.368;2023-10-08T06:23:34;4.93;;;0.55;;
51838;SDS011;37886;53.174;6.368;2023-10-08T06:26:01;6.53;;;1.05;;
51838;SDS011;37886;53.174;6.368;2023-10-08T06:28:43;14.07;;;1.17;;
51838;SDS011;37886;53.174;6.368;2023-10-08T06:31:09;11.13;;;0.70;;
51838;SDS011;37886;53.174;6.368;2023-10-08T06:33:42;9.25;;;0.80;;
51838;SDS011;37886;53.174;6.368;2023-10-08T06:36:09;8.43;;;0.90;;
51838;SDS011;37886;53.174;6.368;2023-10-08T06:38:35;12.23;;;0.90;;
51838;SDS011;37886;53.174;6.368;2023-10-08T06:41:04;9.93;;;1.00;;
51838;SDS011;37886;53.174;6.368;2023-10-08T06:43:43;6.38;;;0.80;;
51838;SDS011;37886;53.174;6.368;2023-10-08T06:46:30;7.07;;;0.80;;
51838;SDS011;37886;53.174;6.368;2023-10-08T06:48:59;9.55;;;0.90;;
51838;SDS011;37886;53.174;6.368;2023-10-08T06:51:25;7.55;;;0.82;;
51838;SDS011;37886;53.174;6.368;2023-10-08T06:53:51;11.75;;;0.77;;
51838;SDS011;37886;53.174;6.368;2023-10-08T06:56:19;7.53;;;0.77;;
51838;SDS011;37886;53.174;6.368;2023-10-08T06:58:45;9.65;;;0.98;;
51838;SDS011;37886;53.174;6.368;2023-10-08T07:01:19;11.95;;;1.00;;
51838;SDS011;37886;53.174;6.368;2023-10-08T07:03:56;8.70;;;1.08;;
51838;SDS011;37886;53.174;6.368;2023-10-08T07:06:28;13.10;;;0.88;;
51838;SDS011;37886;53.174;6.368;2023-10-08T07:08:59;8.65;;;0.85;;
51838;SDS011;37886;53.174;6.368;2023-10-08T07:14:39;13.55;;;0.95;;
51838;SDS011;37886;53.174;6.368;2023-10-08T07:17:06;12.32;;;0.80;;
51838;SDS011;37886;53.174;6.368;2023-10-08T07:19:33;7.82;;;1.05;;
51838;SDS011;37886;53.174;6.368;2023-10-08T07:22:07;5.18;;;0.68;;
51838;SDS011;37886;53.174;6.368;2023-10-08T07:24:53;9.98;;;0.73;;
51838;SDS011;37886;53.174;6.368;2023-10-08T07:27:19;3.95;;;0.57;;
51838;SDS011;37886;53.174;6.368;2023-10-08T07:29:47;8.82;;;0.80;;
51838;SDS011;37886;53.174;6.368;2023-10-08T07:32:13;8.45;;;0.80;;
51838;SDS011;37886;53.174;6.368;2023-10-08T07:34:43;8.77;;;0.52;;
51838;SDS011;37886;53.174;6.368;2023-10-08T07:37:09;9.90;;;0.88;;
51838;SDS011;37886;53.174;6.368;2023-10-08T07:39:36;8.57;;;0.82;;
51838;SDS011;37886;53.174;6.368;2023-10-08T07:42:10;10.13;;;0.90;;
51838;SDS011;37886;53.174;6.368;2023-10-08T07:44:36;12.13;;;1.02;;
51838;SDS011;37886;53.174;6.368;2023-10-08T07:47:03;16.98;;;1.00;;
51838;SDS011;37886;53.174;6.368;2023-10-08T07:49:33;11.63;;;0.80;;
51838;SDS011;37886;53.174;6.368;2023-10-08T07:54:26;11.43;;;1.00;;
51838;SDS011;37886;53.174;6.368;2023-10-08T07:56:56;9.73;;;1.00;;
51838;SDS011;37886;53.174;6.368;2023-10-08T07:59:40;9.85;;;0.80;;
51838;SDS011;37886;53.174;6.368;2023-10-08T08:02:07;12.05;;;1.15;;
51838;SDS011;37886;53.174;6.368;2023-10-08T08:04:36;9.30;;;1.00;;
51838;SDS011;37886;53.174;6.368;2023-10-08T08:07:06;9.67;;;0.87;;
51838;SDS011;37886;53.174;6.368;2023-10-08T08:09:32;7.88;;;0.70;;
51838;SDS011;37886;53.174;6.368;2023-10-08T08:12:06;18.92;;;1.30;;
51838;SDS011;37886;53.174;6.368;2023-10-08T08:14:35;7.47;;;0.77;;
51838;SDS011;37886;53.174;6.368;2023-10-08T08:17:04;15.38;;;0.82;;
51838;SDS011;37886;53.174;6.368;2023-10-08T08:19:48;9.55;;;0.60;;
51838;SDS011;37886;53.174;6.368;2023-10-08T08:22:15;11.63;;;0.85;;
51838;SDS011;37886;53.174;6.368;2023-10-08T08:24:48;6.25;;;0.80;;
51838;SDS011;37886;53.174;6.368;2023-10-08T08:27:18;11.67;;;1.07;;
51838;SDS011;37886;53.174;6.368;2023-10-08T08:29:56;13.50;;;0.95;;
51838;SDS011;37886;53.174;6.368;2023-10-08T08:32:35;10.27;;;0.90;;
51838;SDS011;37886;53.174;6.368;2023-10-08T08:35:08;13.63;;;1.10;;
51838;SDS011;37886;53.174;6.368;2023-10-08T08:37:34;8.93;;;0.70;;
51838;SDS011;37886;53.174;6.368;2023-10-08T08:40:02;6.72;;;0.60;;
51838;SDS011;37886;53.174;6.368;2023-10-08T08:42:48;6.40;;;0.63;;
51838;SDS011;37886;53.174;6.368;2023-10-08T08:45:19;11.27;;;0.80;;
51838;SDS011;37886;53.174;6.368;2023-10-08T08:47:45;13.57;;;1.00;;
51838;SDS011;37886;53.174;6.368;2023-10-08T08:50:12;8.25;;;0.88;;
51838;SDS011;37886;53.174;6.368;2023-10-08T08:52:38;8.10;;;0.60;;
51838;SDS011;37886;53.174;6.368;2023-10-08T08:55:05;9.27;;;0.90;;
51838;SDS011;37886;53.174;6.368;2023-10-08T08:57:38;9.48;;;1.02;;
51838;SDS011;37886;53.174;6.368;2023-10-08T09:00:07;8.35;;;0.65;;
51838;SDS011;37886;53.174;6.368;2023-10-08T09:02:35;6.70;;;0.65;;
51838;SDS011;37886;53.174;6.368;2023-10-08T09:05:05;8.63;;;0.68;;
51838;SDS011;37886;53.174;6.368;2023-10-08T09:10:30;11.43;;;1.05;;
51838;SDS011;37886;53.174;6.368;2023-10-08T09:13:02;5.55;;;0.60;;
51838;SDS011;37886;53.174;6.368;2023-10-08T09:15:36;6.38;;;0.70;;
51838;SDS011;37886;53.174;6.368;2023-10-08T09:18:03;7.80;;;0.90;;
51838;SDS011;37886;53.174;6.368;2023-10-08T09:20:29;7.82;;;0.70;;
51838;SDS011;37886;53.174;6.368;2023-10-08T09:23:09;12.02;;;0.88;;
51838;SDS011;37886;53.174;6.368;2023-10-08T09:25:43;11.25;;;0.85;;
51838;SDS011;37886;53.174;6.368;2023-10-08T09:28:10;8.05;;;0.80;;
51838;SDS011;37886;53.174;6.368;2023-10-08T09:30:40;9.88;;;1.00;;
51838;SDS011;37886;53.174;6.368;2023-10-08T09:33:06;14.63;;;1.10;;
51838;SDS011;37886;53.174;6.368;2023-10-08T09:35:33;10.43;;;0.90;;
51838;SDS011;37886;53.174;6.368;2023-10-08T09:38:01;13.48;;;1.10;;
51838;SDS011;37886;53.174;6.368;2023-10-08T09:40:28;8.13;;;0.90;;
51838;SDS011;37886;53.174;6.368;2023-10-08T09:42:54;8.32;;;0.95;;
51838;SDS011;37886;53.174;6.368;2023-10-08T09:45:21;10.10;;;1.15;;
51838;SDS011;37886;53.174;6.368;2023-10-08T09:47:52;11.13;;;0.90;;
51838;SDS011;37886;53.174;6.368;2023-10-08T09:50:30;13.20;;;0.93;;
51838;SDS011;37886;53.174;6.368;2023-10-08T09:55:46;12.40;;;1.10;;
51838;SDS011;37886;53.174;6.368;2023-10-08T09:58:30;11.43;;;1.00;;
51838;SDS011;37886;53.174;6.368;2023-10-08T10:00:56;9.55;;;0.73;;
51838;SDS011;37886;53.174;6.368;2023-10-08T10:03:24;13.13;;;0.70;;
51838;SDS011;37886;53.174;6.368;2023-10-08T10:05:51;14.30;;;0.98;;
51838;SDS011;37886;53.174;6.368;2023-10-08T10:08:19;10.15;;;1.30;;
51838;SDS011;37886;53.174;6.368;2023-10-08T10:10:50;11.70;;;0.90;;
51838;SDS011;37886;53.174;6.368;2023-10-08T10:13:24;12.38;;;1.00;;
51838;SDS011;37886;53.174;6.368;2023-10-08T10:15:53;13.93;;;1.20;;
51838;SDS011;37886;53.174;6.368;2023-10-08T10:20:52;10.57;;;1.08;;
51838;SDS011;37886;53.174;6.368;2023-10-08T10:23:38;8.27;;;0.85;;
51838;SDS011;37886;53.174;6.368;2023-10-08T10:26:21;6.17;;;1.03;;
51838;SDS011;37886;53.174;6.368;2023-10-08T10:31:40;7.95;;;0.75;;
51838;SDS011;37886;53.174;6.368;2023-10-08T10:34:15;9.25;;;0.77;;
51838;SDS011;37886;53.174;6.368;2023-10-08T10:36:48;13.00;;;1.05;;
51838;SDS011;37886;53.174;6.368;2023-10-08T10:39:20;12.10;;;1.00;;
51838;SDS011;37886;53.174;6.368;2023-10-08T10:41:53;12.55;;;1.17;;
51838;SDS011;37886;53.174;6.368;2023-10-08T10:44:22;10.90;;;1.05;;
51838;SDS011;37886;53.174;6.368;2023-10-08T10:46:51;6.15;;;0.68;;
51838;SDS011;37886;53.174;6.368;2023-10-08T10:49:37;10.35;;;1.13;;
51838;SDS011;37886;53.174;6.368;2023-10-08T10:52:23;5.78;;;0.80;;
51838;SDS011;37886;53.174;6.368;2023-10-08T10:55:08;6.35;;;0.77;;
51838;SDS011;37886;53.174;6.368;2023-10-08T10:57:53;11.48;;;1.00;;
51838;SDS011;37886;53.174;6.368;2023-10-08T11:00:24;6.80;;;0.75;;
51838;SDS011;37886;53.174;6.368;2023-10-08T11:02:57;9.13;;;0.80;;
51838;SDS011;37886;53.174;6.368;2023-10-08T11:05:31;12.27;;;0.82;;
51838;SDS011;37886;53.174;6.368;2023-10-08T11:08:02;9.63;;;1.00;;
51838;SDS011;37886;53.174;6.368;2023-10-08T11:10:34;11.40;;;1.10;;
51838;SDS011;37886;53.174;6.368;2023-10-08T11:13:08;9.50;;;0.93;;
51838;SDS011;37886;53.174;6.368;2023-10-08T11:15:43;8.93;;;0.75;;
51838;SDS011;37886;53.174;6.368;2023-10-08T11:18:15;6.97;;;0.73;;
51838;SDS011;37886;53.174;6.368;2023-10-08T11:20:42;9.35;;;0.65;;
51838;SDS011;37886;53.174;6.368;2023-10-08T11:26:04;8.60;;;0.68;;
51838;SDS011;37886;53.174;6.368;2023-10-08T11:28:34;10.45;;;0.75;;
51838;SDS011;37886;53.174;6.368;2023-10-08T11:31:06;12.18;;;0.90;;
51838;SDS011;37886;53.174;6.368;2023-10-08T11:33:39;8.13;;;1.00;;
51838;SDS011;37886;53.174;6.368;2023-10-08T11:36:06;7.90;;;0.82;;
51838;SDS011;37886;53.174;6.368;2023-10-08T11:38:43;8.00;;;0.82;;
51838;SDS011;37886;53.174;6.368;2023-10-08T11:41:14;8.38;;;1.00;;
51838;SDS011;37886;53.174;6.368;2023-10-08T11:43:47;12.20;;;0.75;;
51838;SDS011;37886;53.174;6.368;2023-10-08T11:46:19;9.65;;;1.10;;
51838;SDS011;37886;53.174;6.368;2023-10-08T11:48:51;9.88;;;0.75;;
51838;SDS011;37886;53.174;6.368;2023-10-08T11:51:17;8.38;;;0.93;;
51838;SDS011;37886;53.174;6.368;2023-10-08T11:53:43;7.80;;;0.98;;
51838;SDS011;37886;53.174;6.368;2023-10-08T11:56:11;4.80;;;0.60;;
51838;SDS011;37886;53.174;6.368;2023-10-08T11:58:41;13.27;;;1.05;;
51838;SDS011;37886;53.174;6.368;2023-10-08T12:01:10;11.15;;;0.75;;
51838;SDS011;37886;53.174;6.368;2023-10-08T12:03:41;8.57;;;0.90;;
51838;SDS011;37886;53.174;6.368;2023-10-08T12:06:09;10.20;;;0.95;;
51838;SDS011;37886;53.174;6.368;2023-10-08T12:08:40;7.35;;;0.82;;
51838;SDS011;37886;53.174;6.368;2023-10-08T12:11:06;10.38;;;0.80;;
51838;SDS011;37886;53.174;6.368;2023-10-08T12:13:40;12.27;;;1.03;;
51838;SDS011;37886;53.174;6.368;2023-10-08T12:16:16;10.45;;;0.85;;
51838;SDS011;37886;53.174;6.368;2023-10-08T12:18:48;7.28;;;0.70;;
51838;SDS011;37886;53.174;6.368;2023-10-08T12:21:18;12.73;;;0.85;;
51838;SDS011;37886;53.174;6.368;2023-10-08T12:23:44;9.43;;;0.70;;
51838;SDS011;37886;53.174;6.368;2023-10-08T12:26:14;6.65;;;0.80;;
51838;SDS011;37886;53.174;6.368;2023-10-08T12:28:46;9.93;;;0.80;;
51838;SDS011;37886;53.174;6.368;2023-10-08T12:31:14;9.70;;;1.08;;
51838;SDS011;37886;53.174;6.368;2023-10-08T12:33:48;4.53;;;0.90;;
51838;SDS011;37886;53.174;6.368;2023-10-08T12:36:16;7.40;;;0.77;;
51838;SDS011;37886;53.174;6.368;2023-10-08T12:38:42;7.90;;;0.88;;
51838;SDS011;37886;53.174;6.368;2023-10-08T12:41:12;5.63;;;0.75;;
51838;SDS011;37886;53.174;6.368;2023-10-08T12:43:42;8.10;;;1.00;;
51838;SDS011;37886;53.174;6.368;2023-10-08T12:46:12;6.45;;;0.85;;
51838;SDS011;37886;53.174;6.368;2023-10-08T12:48:44;8.02;;;0.90;;
51838;SDS011;37886;53.174;6.368;2023-10-08T12:51:16;5.53;;;0.65;;
51838;SDS011;37886;53.174;6.368;2023-10-08T12:53:42;9.65;;;1.20;;
51838;SDS011;37886;53.174;6.368;2023-10-08T12:56:15;11.43;;;0.80;;
51838;SDS011;37886;53.174;6.368;2023-10-08T12:58:42;5.03;;;0.73;;
51838;SDS011;37886;53.174;6.368;2023-10-08T13:01:13;5.75;;;0.80;;
51838;SDS011;37886;53.174;6.368;2023-10-08T13:03:42;12.45;;;0.98;;
51838;SDS011;37886;53.174;6.368;2023-10-08T13:06:12;6.63;;;0.60;;
51838;SDS011;37886;53.174;6.368;2023-10-08T13:08:55;8.02;;;0.70;;
51838;SDS011;37886;53.174;6.368;2023-10-08T13:11:22;5.50;;;0.80;;
51838;SDS011;37886;53.174;6.368;2023-10-08T13:13:49;10.20;;;1.00;;
51838;SDS011;37886;53.174;6.368;2023-10-08T13:16:15;7.93;;;1.02;;
51838;SDS011;37886;53.174;6.368;2023-10-08T13:18:41;11.48;;;1.05;;
51838;SDS011;37886;53.174;6.368;2023-10-08T13:21:09;4.45;;;0.75;;
51838;SDS011;37886;53.174;6.368;2023-10-08T13:23:35;6.65;;;1.10;;
51838;SDS011;37886;53.174;6.368;2023-10-08T13:26:01;8.65;;;1.00;;
51838;SDS011;37886;53.174;6.368;2023-10-08T13:28:32;7.00;;;0.63;;
51838;SDS011;37886;53.174;6.368;2023-10-08T13:31:00;6.57;;;0.70;;
51838;SDS011;37886;53.174;6.368;2023-10-08T13:33:34;9.63;;;0.75;;
51838;SDS011;37886;53.174;6.368;2023-10-08T13:36:04;9.20;;;0.80;;
51838;SDS011;37886;53.174;6.368;2023-10-08T13:38:34;6.22;;;0.57;;
51838;SDS011;37886;53.174;6.368;2023-10-08T13:41:01;6.68;;;0.70;;
51838;SDS011;37886;53.174;6.368;2023-10-08T13:43:32;8.65;;;0.95;;
51838;SDS011;37886;53.174;6.368;2023-10-08T13:46:04;9.65;;;1.05;;
51838;SDS011;37886;53.174;6.368;2023-10-08T13:48:50;11.15;;;0.98;;
51838;SDS011;37886;53.174;6.368;2023-10-08T13:51:22;6.38;;;0.90;;
51838;SDS011;37886;53.174;6.368;2023-10-08T13:53:51;10.75;;;0.90;;
51838;SDS011;37886;53.174;6.368;2023-10-08T13:56:21;8.38;;;0.82;;
51838;SDS011;37886;53.174;6.368;2023-10-08T13:58:51;10.30;;;0.77;;
51838;SDS011;37886;53.174;6.368;2023-10-08T14:01:22;8.23;;;0.80;;
51838;SDS011;37886;53.174;6.368;2023-10-08T14:03:50;9.88;;;0.80;;
51838;SDS011;37886;53.174;6.368;2023-10-08T14:06:21;3.80;;;0.50;;
51838;SDS011;37886;53.174;6.368;2023-10-08T14:08:47;10.00;;;0.77;;
51838;SDS011;37886;53.174;6.368;2023-10-08T14:11:20;13.13;;;0.93;;
51838;SDS011;37886;53.174;6.368;2023-10-08T14:13:52;12.07;;;0.80;;
51838;SDS011;37886;53.174;6.368;2023-10-08T14:16:20;11.15;;;0.95;;
51838;SDS011;37886;53.174;6.368;2023-10-08T14:21:19;13.73;;;0.90;;
51838;SDS011;37886;53.174;6.368;2023-10-08T14:23:49;10.25;;;0.77;;
51838;SDS011;37886;53.174;6.368;2023-10-08T14:26:17;6.07;;;0.80;;
51838;SDS011;37886;53.174;6.368;2023-10-08T14:28:47;8.88;;;0.88;;
51838;SDS011;37886;53.174;6.368;2023-10-08T14:31:18;8.40;;;0.68;;
51838;SDS011;37886;53.174;6.368;2023-10-08T14:33:47;6.15;;;0.85;;
51838;SDS011;37886;53.174;6.368;2023-10-08T14:36:46;11.50;;;0.90;;
51838;SDS011;37886;53.174;6.368;2023-10-08T14:39:35;11.23;;;0.75;;
51838;SDS011;37886;53.174;6.368;2023-10-08T14:42:19;6.97;;;0.80;;
51838;SDS011;37886;53.174;6.368;2023-10-08T14:45:04;4.60;;;0.70;;
51838;SDS011;37886;53.174;6.368;2023-10-08T14:47:38;6.63;;;1.08;;
51838;SDS011;37886;53.174;6.368;2023-10-08T14:50:04;8.75;;;1.10;;
51838;SDS011;37886;53.174;6.368;2023-10-08T14:52:30;11.13;;;1.00;;
51838;SDS011;37886;53.174;6.368;2023-10-08T14:54:58;9.82;;;1.08;;
51838;SDS011;37886;53.174;6.368;2023-10-08T14:57:24;8.75;;;0.80;;
51838;SDS011;37886;53.174;6.368;2023-10-08T14:59:51;10.07;;;1.20;;
51838;SDS011;37886;53.174;6.368;2023-10-08T15:02:17;11.02;;;0.90;;
51838;SDS011;37886;53.174;6.368;2023-10-08T15:04:43;6.55;;;0.90;;
51838;SDS011;37886;53.174;6.368;2023-10-08T15:07:09;8.02;;;0.85;;
51838;SDS011;37886;53.174;6.368;2023-10-08T15:09:43;8.75;;;0.85;;
51838;SDS011;37886;53.174;6.368;2023-10-08T15:12:09;7.18;;;0.77;;
51838;SDS011;37886;53.174;6.368;2023-10-08T15:14:35;7.03;;;0.70;;
51838;SDS011;37886;53.174;6.368;2023-10-08T15:17:03;8.65;;;0.73;;
51838;SDS011;37886;53.174;6.368;2023-10-08T15:19:30;12.60;;;0.80;;
51838;SDS011;37886;53.174;6.368;2023-10-08T15:21:56;11.65;;;1.00;;
51838;SDS011;37886;53.174;6.368;2023-10-08T15:24:23;6.97;;;0.88;;
51838;SDS011;37886;53.174;6.368;2023-10-08T15:26:53;5.93;;;1.10;;
51838;SDS011;37886;53.174;6.368;2023-10-08T15:29:22;7.03;;;0.87;;
51838;SDS011;37886;53.174;6.368;2023-10-08T15:31:52;4.88;;;0.70;;
51838;SDS011;37886;53.174;6.368;2023-10-08T15:34:19;6.35;;;0.77;;
51838;SDS011;37886;53.174;6.368;2023-10-08T15:36:49;11.37;;;0.90;;
51838;SDS011;37886;53.174;6.368;2023-10-08T15:39:15;10.00;;;1.00;;
51838;SDS011;37886;53.174;6.368;2023-10-08T15:41:51;10.98;;;1.02;;
51838;SDS011;37886;53.174;6.368;2023-10-08T15:44:18;11.73;;;0.90;;
51838;SDS011;37886;53.174;6.368;2023-10-08T15:46:46;5.35;;;1.10;;